Time;durP1;ratioP1;P1;durP2;ratioP2;P2;SDS_P1;SDS_P2;PMS_P1;PMS_P2;Temp;Humidity;BMP_temperature;BMP_pressure;BME280_temperature;BME280_humidity;BME280_pressure;Samples;Min_cycle;Max_cycle;Signal;HPM_P1;HPM_P2
2021/12/15 00:00:54;;;;;;;35.73;5.93;;;;;;;6.94;100.00;99208.16;5141269;28;20634;-67
2021/12/15 00:03:21;;;;;;;24.77;4.90;;;;;;;7.01;100.00;99210.78;5138789;28;20630;-65
2021/12/15 00:05:49;;;;;;;61.83;6.70;;;;;;;7.04;100.00;99208.53;5142874;27;20604;-65
2021/12/15 00:08:16;;;;;;;38.73;5.53;;;;;;;7.03;100.00;99208.72;5146360;27;20636;-65
2021/12/15 00:10:46;;;;;;;29.23;5.70;;;;;;;7.07;100.00;99207.28;5146121;27;20652;-65
2021/12/15 00:13:14;;;;;;;23.87;4.63;;;;;;;7.09;100.00;99202.59;5142653;27;20607;-65
2021/12/15 00:15:43;;;;;;;34.57;6.20;;;;;;;7.10;100.00;99206.06;5142519;27;20656;-65
2021/12/15 00:18:10;;;;;;;78.43;8.80;;;;;;;7.11;100.00;99203.22;5145725;27;20618;-66
2021/12/15 00:20:37;;;;;;;39.77;5.47;;;;;;;7.09;100.00;99201.78;5139686;27;20621;-65
2021/12/15 00:23:05;;;;;;;46.20;6.50;;;;;;;7.08;100.00;99203.63;5143642;27;20647;-67
2021/12/15 00:25:36;;;;;;;37.50;5.57;;;;;;;7.06;100.00;99195.03;5142552;27;20597;-65
2021/12/15 00:28:02;;;;;;;11.33;4.87;;;;;;;7.08;100.00;99193.00;5144331;27;20612;-66
2021/12/15 00:30:29;;;;;;;31.47;5.77;;;;;;;7.08;100.00;99198.31;5145974;27;20607;-64
2021/12/15 00:32:57;;;;;;;61.40;7.70;;;;;;;7.10;100.00;99200.75;5144495;27;20596;-65
2021/12/15 00:35:25;;;;;;;36.93;5.57;;;;;;;7.14;100.00;99207.28;5142223;27;20640;-65
2021/12/15 00:37:52;;;;;;;29.03;5.43;;;;;;;7.12;100.00;99194.19;5142704;27;20592;-65
2021/12/15 00:40:22;;;;;;;26.10;4.80;;;;;;;7.12;100.00;99194.19;5145895;27;20599;-65
2021/12/15 00:42:49;;;;;;;23.53;5.10;;;;;;;7.11;100.00;99200.56;5145584;27;20611;-65
2021/12/15 00:45:16;;;;;;;14.67;4.90;;;;;;;7.11;100.00;99197.91;5142017;27;20607;-65
2021/12/15 00:47:43;;;;;;;46.90;6.80;;;;;;;7.11;100.00;99197.91;5141921;27;20690;-66
2021/12/15 00:50:15;;;;;;;11.13;3.50;;;;;;;7.14;100.00;99201.97;5138161;27;20619;-65
2021/12/15 00:52:45;;;;;;;40.30;6.20;;;;;;;7.11;100.00;99202.38;5145508;27;20608;-65
2021/12/15 00:55:19;;;;;;;31.60;6.20;;;;;;;7.11;100.00;99197.91;5141797;27;20639;-65
2021/12/15 00:57:46;;;;;;;48.60;7.43;;;;;;;7.16;100.00;99200.72;5141777;27;20652;-65
2021/12/15 01:00:18;;;;;;;36.57;5.53;;;;;;;7.12;100.00;99199.50;5133248;27;20612;-64
2021/12/15 01:02:46;;;;;;;23.37;3.37;;;;;;;7.12;100.00;99194.19;5141579;27;20645;-65
2021/12/15 01:05:17;;;;;;;41.73;6.30;;;;;;;7.11;100.00;99197.91;5145165;27;20682;-65
2021/12/15 01:07:48;;;;;;;26.03;4.70;;;;;;;7.10;100.00;99204.22;5145267;27;20663;-65
2021/12/15 01:10:20;;;;;;;27.27;5.03;;;;;;;7.07;100.00;99212.63;5133029;27;20626;-66
2021/12/15 01:14:28;;;;;;;27.33;4.20;;;;;;;7.09;100.00;99207.09;5141526;27;20696;-64
2021/12/15 01:21:08;;;;;;;49.40;6.00;;;;;;;6.94;100.00;99220.59;5142693;27;20620;-65
2021/12/15 01:23:34;;;;;;;22.57;5.60;;;;;;;6.97;100.00;99220.19;5144890;27;21254;-65
2021/12/15 01:26:06;;;;;;;29.13;5.80;;;;;;;6.95;100.00;99219.59;5142770;27;20603;-66
2021/12/15 01:28:32;;;;;;;54.07;5.70;;;;;;;6.93;100.00;99214.47;5141301;27;20649;-65
2021/12/15 01:31:00;;;;;;;65.23;7.10;;;;;;;6.93;100.00;99214.47;5142668;27;20608;-65
2021/12/15 01:33:29;;;;;;;32.50;5.03;;;;;;;6.94;100.00;99216.13;5144769;27;20652;-65
2021/12/15 01:35:58;;;;;;;34.57;5.90;;;;;;;6.97;100.00;99222.84;5143338;27;20646;-65
2021/12/15 01:38:29;;;;;;;44.00;6.53;;;;;;;7.03;100.00;99214.03;5141065;27;20612;-65
2021/12/15 01:40:56;;;;;;;50.67;6.33;;;;;;;7.00;100.00;99217.94;5141974;27;20596;-65
2021/12/15 01:43:35;;;;;;;42.40;6.40;;;;;;;6.92;100.00;99222.66;5144658;27;20587;-66
2021/12/15 01:48:57;;;;;;;42.73;5.13;;;;;;;7.04;100.00;99221.00;5137543;27;20596;-65
2021/12/15 01:51:24;;;;;;;27.27;6.00;;;;;;;7.04;100.00;99219.16;5133872;27;20622;-64
2021/12/15 01:53:52;;;;;;;14.73;5.20;;;;;;;7.04;100.00;99208.53;5141027;27;20691;-65
2021/12/15 01:56:18;;;;;;;36.40;6.80;;;;;;;7.03;100.00;99217.53;5144134;27;20708;-65
2021/12/15 01:58:46;;;;;;;31.60;5.10;;;;;;;7.05;100.00;99222.63;5144167;27;20607;-65
2021/12/15 02:01:12;;;;;;;32.93;5.40;;;;;;;7.05;100.00;99220.81;5140597;27;20604;-64
2021/12/15 02:03:40;;;;;;;70.57;7.17;;;;;;;7.07;100.00;99216.09;5140485;27;20608;-65
2021/12/15 02:06:09;;;;;;;47.87;6.53;;;;;;;7.00;100.00;99212.63;5143127;27;20650;-65
2021/12/15 02:08:35;;;;;;;23.03;5.00;;;;;;;7.00;100.00;99207.31;5143891;27;20603;-65
2021/12/15 02:11:04;;;;;;;52.73;6.43;;;;;;;7.02;100.00;99213.22;5141768;27;20603;-65
2021/12/15 02:13:31;;;;;;;46.30;6.30;;;;;;;7.02;100.00;99223.06;5140344;27;20608;-65
2021/12/15 02:16:01;;;;;;;40.57;6.50;;;;;;;7.05;100.00;99214.66;5141458;27;20678;-65
2021/12/15 02:18:30;;;;;;;52.87;6.27;;;;;;;7.10;100.00;99229.97;5142685;27;20634;-65
2021/12/15 02:21:03;;;;;;;18.47;5.57;;;;;;;7.06;100.00;99226.91;5137809;27;20583;-65
2021/12/15 02:23:35;;;;;;;59.93;7.87;;;;;;;7.03;100.00;99225.50;5139981;27;20613;-66
2021/12/15 02:26:07;;;;;;;25.43;5.43;;;;;;;6.91;100.00;99216.53;5141803;27;20608;-65
2021/12/15 02:28:34;;;;;;;41.40;6.47;;;;;;;6.93;100.00;99219.00;5142596;27;20639;-65
2021/12/15 02:31:09;;;;;;;16.03;5.33;;;;;;;6.94;100.00;99220.59;5141533;27;20608;-64
2021/12/15 02:33:48;;;;;;;13.77;4.33;;;;;;;6.92;100.00;99220.00;5139901;27;20607;-65
2021/12/15 02:39:05;;;;;;;32.77;6.10;;;;;;;6.96;100.00;99222.03;5141367;27;20608;-64
2021/12/15 02:41:33;;;;;;;45.73;5.67;;;;;;;7.00;100.00;99219.78;5143471;27;20612;-65
2021/12/15 02:44:03;;;;;;;37.10;4.87;;;;;;;6.98;100.00;99221.84;5141495;27;20615;-65
2021/12/15 02:46:33;;;;;;;58.90;6.80;;;;;;;6.91;100.00;99221.84;5139669;27;20601;-66
2021/12/15 02:49:00;;;;;;;27.57;5.83;;;;;;;6.89;100.00;99231.03;5136156;27;20659;-65
2021/12/15 02:51:29;;;;;;;50.80;6.07;;;;;;;6.96;100.00;99226.53;5139612;27;20588;-65
2021/12/15 02:53:59;;;;;;;22.40;5.20;;;;;;;6.96;100.00;99232.66;5140610;27;20608;-65
2021/12/15 02:56:26;;;;;;;32.17;4.37;;;;;;;6.96;100.00;99230.00;5142977;27;20659;-65
2021/12/15 02:58:57;;;;;;;41.50;5.67;;;;;;;6.88;100.00;99243.50;5142495;27;20592;-64
2021/12/15 03:01:34;;;;;;;16.17;3.80;;;;;;;6.84;100.00;99244.94;5139542;27;20612;-65
2021/12/15 03:06:54;;;;;;;52.40;6.90;;;;;;;6.81;100.00;99239.22;5142888;27;20625;-65
2021/12/15 03:17:43;;;;;;;22.20;5.23;;;;;;;6.96;100.00;99231.84;5142937;27;20587;-64
2021/12/15 03:20:12;;;;;;;46.80;7.13;;;;;;;6.97;100.00;99249.41;5130877;27;20588;-65
2021/12/15 03:22:42;;;;;;;10.00;4.20;;;;;;;6.99;100.00;99236.75;5142710;27;20621;-65
2021/12/15 03:25:09;;;;;;;27.50;4.90;;;;;;;7.00;100.00;99233.88;5139734;27;20613;-65
2021/12/15 03:33:33;;;;;;;25.60;6.10;;;;;;;7.01;100.00;99235.53;5141244;28;20612;-65
2021/12/15 03:36:06;;;;;;;41.57;5.80;;;;;;;6.99;100.00;99221.59;5140620;28;20742;-65
2021/12/15 03:38:36;;;;;;;44.70;6.33;;;;;;;7.00;100.00;99233.88;5139253;28;20655;-65
2021/12/15 03:41:05;;;;;;;34.90;6.53;;;;;;;7.03;100.00;99232.63;5145375;27;20637;-66
2021/12/15 03:43:33;;;;;;;22.73;5.10;;;;;;;7.02;100.00;99241.66;5146922;27;20608;-65
2021/12/15 03:46:03;;;;;;;73.03;8.80;;;;;;;7.01;100.00;99230.22;5144985;27;20747;-65
2021/12/15 03:48:34;;;;;;;49.60;6.27;;;;;;;7.00;100.00;99233.88;5142379;27;20588;-65
2021/12/15 03:51:01;;;;;;;40.00;6.80;;;;;;;7.01;100.00;99237.34;5141277;27;20611;-65
2021/12/15 03:53:28;;;;;;;15.20;5.40;;;;;;;6.99;100.00;99236.75;5143179;27;20612;-65
2021/12/15 03:55:56;;;;;;;34.40;6.07;;;;;;;7.01;100.00;99232.03;5143950;27;20651;-65
2021/12/15 03:58:24;;;;;;;30.20;6.00;;;;;;;6.99;100.00;99231.44;5146636;27;20626;-64
2021/12/15 04:00:53;;;;;;;21.27;5.63;;;;;;;6.99;100.00;99231.44;5145981;27;20706;-64
2021/12/15 04:03:25;;;;;;;19.43;5.27;;;;;;;6.99;100.00;99228.78;5142940;27;20600;-65
2021/12/15 04:05:53;;;;;;;28.47;6.10;;;;;;;6.98;100.00;99229.78;5143285;27;20637;-65
2021/12/15 04:08:19;;;;;;;21.57;6.13;;;;;;;6.97;100.00;99234.28;5146404;27;20607;-64
2021/12/15 04:10:46;;;;;;;25.33;4.80;;;;;;;7.00;100.00;99227.75;5146312;27;20641;-66
2021/12/15 04:13:14;;;;;;;26.37;5.43;;;;;;;6.99;100.00;99228.78;5142637;27;20600;-65
2021/12/15 04:15:47;;;;;;;31.07;5.73;;;;;;;7.04;100.00;99239.59;5142684;27;20693;-65
2021/12/15 04:18:14;;;;;;;13.67;5.20;;;;;;;7.01;100.00;99237.34;5134202;27;20616;-65
2021/12/15 04:20:42;;;;;;;48.13;7.40;;;;;;;6.96;100.00;99237.97;5138066;27;20629;-65
2021/12/15 04:23:11;;;;;;;38.17;8.17;;;;;;;6.97;100.00;99239.59;5143075;27;20604;-65
2021/12/15 04:25:41;;;;;;;20.70;6.20;;;;;;;6.99;100.00;99239.41;5142497;27;21046;-65
2021/12/15 04:28:11;;;;;;;36.97;7.30;;;;;;;6.94;100.00;99249.81;5145051;27;20588;-65
2021/12/15 04:30:43;;;;;;;36.27;5.57;;;;;;;6.96;100.00;99259.22;5145969;27;20599;-64
2021/12/15 04:33:15;;;;;;;24.00;6.10;;;;;;;6.96;100.00;99258.41;5142669;27;20604;-66
2021/12/15 04:35:43;;;;;;;43.63;6.73;;;;;;;6.96;100.00;99259.22;5142322;27;21179;-65
2021/12/15 04:38:13;;;;;;;37.07;5.87;;;;;;;6.75;100.00;99261.28;5145253;27;20607;-65
2021/12/15 04:40:40;;;;;;;59.80;7.93;;;;;;;6.59;100.00;99267.03;5145681;27;20596;-65
2021/12/15 04:43:07;;;;;;;29.00;6.40;;;;;;;6.62;100.00;99271.91;5143069;27;20637;-66
2021/12/15 04:45:34;;;;;;;52.70;7.47;;;;;;;6.68;100.00;99268.44;5142363;27;20597;-65
2021/12/15 04:48:02;;;;;;;32.13;6.93;;;;;;;6.80;100.00;99274.78;5143732;27;20619;-64
2021/12/15 04:50:30;;;;;;;31.27;5.90;;;;;;;6.81;100.00;99273.72;5131388;27;20630;-64
2021/12/15 04:52:59;;;;;;;28.43;6.17;;;;;;;6.86;100.00;99276.59;5143279;27;20608;-64
2021/12/15 04:55:28;;;;;;;27.60;5.00;;;;;;;6.89;100.00;99274.34;5145343;27;20639;-65
2021/12/15 04:57:56;;;;;;;19.07;4.60;;;;;;;6.87;100.00;99280.91;5144376;27;20703;-65
2021/12/15 05:00:26;;;;;;;45.33;7.27;;;;;;;6.86;100.00;99279.25;5141741;27;20611;-64
2021/12/15 05:02:52;;;;;;;14.00;5.37;;;;;;;6.93;100.00;99285.38;5124189;27;20687;-65
2021/12/15 05:05:22;;;;;;;44.00;6.47;;;;;;;6.94;100.00;99290.47;5145117;27;20599;-65
2021/12/15 05:07:49;;;;;;;29.43;5.67;;;;;;;6.94;100.00;99303.75;5145284;27;20621;-65
2021/12/15 05:10:17;;;;;;;40.47;6.27;;;;;;;6.94;100.00;99303.75;5133259;27;20608;-65
2021/12/15 05:12:44;;;;;;;20.20;5.37;;;;;;;6.96;100.00;99306.22;5141492;27;20600;-65
2021/12/15 05:15:12;;;;;;;13.40;4.70;;;;;;;6.96;100.00;99301.69;5144533;27;21063;-66
2021/12/15 05:17:39;;;;;;;30.47;4.97;;;;;;;6.95;100.00;99304.56;5145112;27;21149;-65
2021/12/15 05:20:09;;;;;;;16.33;5.00;;;;;;;6.97;100.00;99308.66;5132924;27;20604;-65
2021/12/15 05:22:37;;;;;;;35.77;6.00;;;;;;;6.94;100.00;99305.59;5144945;27;20607;-65
2021/12/15 05:25:06;;;;;;;41.40;6.57;;;;;;;6.94;100.00;99305.59;5142265;27;20606;-65
2021/12/15 05:27:34;;;;;;;35.90;6.20;;;;;;;7.04;100.00;99319.28;5141170;27;20614;-65
2021/12/15 05:30:00;;;;;;;49.53;6.80;;;;;;;6.91;100.00;99317.44;5142707;27;20666;-64
2021/12/15 05:32:27;;;;;;;25.10;5.83;;;;;;;6.92;100.00;99315.63;5144615;27;20596;-65
2021/12/15 05:34:58;;;;;;;66.33;8.23;;;;;;;6.70;100.00;99315.00;5143842;27;20607;-65
2021/12/15 05:37:26;;;;;;;19.63;5.90;;;;;;;6.71;100.00;99323.78;5140966;27;20636;-65
2021/12/15 05:39:55;;;;;;;23.63;6.60;;;;;;;6.58;100.00;99329.09;5141458;27;20596;-65
2021/12/15 05:42:23;;;;;;;13.93;5.40;;;;;;;6.37;100.00;99336.22;5144378;27;20598;-64
2021/12/15 05:44:50;;;;;;;34.53;7.33;;;;;;;6.40;100.00;99334.97;5125833;27;20608;-65
2021/12/15 05:47:18;;;;;;;27.70;5.97;;;;;;;6.32;100.00;99335.16;5140762;27;20604;-65
2021/12/15 05:49:45;;;;;;;37.23;7.73;;;;;;;6.36;100.00;99331.91;5134059;27;20609;-65
2021/12/15 05:52:13;;;;;;;30.60;7.03;;;;;;;6.19;100.00;99343.91;5143893;27;20667;-65
2021/12/15 05:54:39;;;;;;;80.43;9.90;;;;;;;6.36;100.00;99349.66;5144175;27;21349;-65
2021/12/15 05:57:08;;;;;;;19.80;6.93;;;;;;;6.31;100.00;99354.75;5141366;27;20656;-65
2021/12/15 05:59:36;;;;;;;30.07;8.30;;;;;;;6.47;100.00;99360.50;5140562;27;20605;-65
2021/12/15 06:02:03;;;;;;;20.73;6.83;;;;;;;6.59;100.00;99362.56;5142250;27;20623;-64
2021/12/15 06:04:30;;;;;;;61.73;7.90;;;;;;;6.61;100.00;99352.56;5143934;27;20607;-65
2021/12/15 06:06:57;;;;;;;55.27;9.40;;;;;;;6.57;100.00;99349.50;5142636;27;20626;-65
2021/12/15 06:09:24;;;;;;;36.93;8.67;;;;;;;6.60;100.00;99354.41;5140272;27;21157;-65
2021/12/15 06:11:53;;;;;;;25.97;6.67;;;;;;;6.67;100.00;99352.56;5140692;27;20638;-65
2021/12/15 06:14:24;;;;;;;21.33;6.93;;;;;;;6.72;100.00;99360.75;5143901;27;20627;-65
2021/12/15 06:16:52;;;;;;;27.83;7.30;;;;;;;6.87;100.00;99360.56;5143376;27;20655;-64
2021/12/15 06:19:19;;;;;;;62.77;8.10;;;;;;;6.80;100.00;99357.09;5133106;27;20600;-65
2021/12/15 06:21:46;;;;;;;38.13;7.70;;;;;;;6.81;100.00;99356.03;5139972;27;20639;-65
2021/12/15 06:24:12;;;;;;;44.90;8.57;;;;;;;6.68;100.00;99358.72;5143484;27;21472;-65
2021/12/15 06:26:39;;;;;;;62.20;9.30;;;;;;;6.82;100.00;99363.00;5143523;27;20621;-64
2021/12/15 06:29:06;;;;;;;38.80;8.20;;;;;;;6.71;100.00;99360.97;5140733;27;20599;-65
2021/12/15 06:31:34;;;;;;;61.60;10.23;;;;;;;6.60;100.00;99361.53;5139953;27;20600;-64
2021/12/15 06:34:01;;;;;;;21.63;8.87;;;;;;;6.57;100.00;99359.28;5141677;27;20607;-65
2021/12/15 06:36:30;;;;;;;33.77;8.30;;;;;;;6.62;100.00;99364.81;5143238;27;20677;-65
2021/12/15 06:38:57;;;;;;;78.43;10.40;;;;;;;6.65;100.00;99369.72;5142247;27;20596;-65
2021/12/15 06:41:24;;;;;;;68.33;10.60;;;;;;;6.64;100.00;99365.44;5139839;27;20630;-65
2021/12/15 06:43:55;;;;;;;25.30;8.27;;;;;;;6.53;100.00;99370.31;5140051;27;20644;-64
2021/12/15 07:00:13;;;;;;;44.87;9.30;;;;;;;6.64;100.00;99395.47;5109783;27;20621;-64
2021/12/15 07:02:41;;;;;;;33.10;8.97;;;;;;;6.54;100.00;99387.06;5139470;27;20677;-65
2021/12/15 07:05:11;;;;;;;33.87;9.37;;;;;;;6.38;100.00;99398.84;5142074;27;20608;-65
2021/12/15 07:07:40;;;;;;;47.50;10.53;;;;;;;6.35;100.00;99398.44;5142960;27;20641;-65
2021/12/15 07:10:09;;;;;;;60.93;11.80;;;;;;;6.40;100.00;99407.44;5140049;27;20603;-65
2021/12/15 07:12:36;;;;;;;74.20;10.57;;;;;;;6.44;100.00;99413.97;5139317;27;20634;-65
2021/12/15 07:15:04;;;;;;;52.27;11.80;;;;;;;6.16;100.00;99415.91;5140572;27;20625;-65
2021/12/15 07:17:31;;;;;;;119.27;13.27;;;;;;;6.09;100.00;99414.25;5142479;27;20668;-65
2021/12/15 07:20:08;;;;;;;43.03;10.10;;;;;;;5.89;100.00;99422.94;5130387;27;20612;-65
2021/12/15 07:22:43;;;;;;;48.13;10.90;;;;;;;5.85;100.00;99434.94;5142506;27;20737;-64
2021/12/15 07:25:12;;;;;;;53.57;11.13;;;;;;;5.88;100.00;99439.84;5139115;27;20640;-65
2021/12/15 07:27:39;;;;;;;65.80;10.87;;;;;;;5.84;100.00;99435.94;5139093;27;20633;-66
2021/12/15 07:30:08;;;;;;;51.73;10.73;;;;;;;5.73;100.00;99436.47;5140977;28;20589;-65
2021/12/15 07:32:35;;;;;;;48.00;11.10;;;;;;;5.93;100.00;99434.78;5142595;28;20595;-65
2021/12/15 07:35:02;;;;;;;54.80;11.53;;;;;;;5.88;100.00;99433.75;5140650;28;20599;-66
2021/12/15 07:37:28;;;;;;;37.63;10.30;;;;;;;5.99;100.00;99441.16;5138852;28;21014;-65
2021/12/15 07:39:58;;;;;;;56.97;11.57;;;;;;;5.96;100.00;99444.19;5139647;28;20604;-65
2021/12/15 07:42:33;;;;;;;44.73;11.77;;;;;;;6.01;100.00;99449.72;5142545;28;20607;-65
2021/12/15 07:45:00;;;;;;;45.83;11.33;;;;;;;6.13;100.00;99450.00;5140575;28;20615;-64
2021/12/15 07:47:27;;;;;;;47.00;12.20;;;;;;;6.13;100.00;99450.78;5138974;28;20588;-65
2021/12/15 07:49:54;;;;;;;70.30;13.47;;;;;;;5.89;100.00;99464.53;5132750;28;20600;-65
2021/12/15 07:52:21;;;;;;;46.83;11.80;;;;;;;5.81;100.00;99460.19;5142448;28;20603;-64
2021/12/15 07:54:47;;;;;;;53.30;11.37;;;;;;;5.74;100.00;99459.31;5142436;28;20607;-65
2021/12/15 07:57:18;;;;;;;83.67;13.70;;;;;;;5.84;100.00;99453.69;5112245;28;20636;-65
2021/12/15 07:59:45;;;;;;;75.60;13.83;;;;;;;5.66;100.00;99448.88;5138955;28;20605;-65
2021/12/15 08:02:12;;;;;;;47.27;11.13;;;;;;;5.69;100.00;99455.63;5141978;28;20684;-64
2021/12/15 08:04:39;;;;;;;82.27;12.87;;;;;;;5.65;100.00;99459.66;5142252;28;20664;-65
2021/12/15 08:07:06;;;;;;;46.87;12.97;;;;;;;5.54;100.00;99466.31;5139601;28;20633;-65
2021/12/15 08:09:32;;;;;;;45.30;11.87;;;;;;;5.55;100.00;99456.53;5138603;28;20609;-65
2021/12/15 08:11:59;;;;;;;56.03;13.20;;;;;;;5.63;100.00;99473.09;5139710;28;20611;-65
2021/12/15 08:14:27;;;;;;;71.17;13.83;;;;;;;5.66;100.00;99471.91;5142017;28;20612;-65
2021/12/15 08:16:54;;;;;;;80.33;13.57;;;;;;;5.71;100.00;99477.44;5141261;28;20668;-64
2021/12/15 08:19:21;;;;;;;137.27;17.33;;;;;;;5.75;100.00;99470.75;5131540;28;20716;-64
2021/12/15 08:21:48;;;;;;;98.93;15.23;;;;;;;5.67;100.00;99478.84;5138325;28;20608;-64
2021/12/15 08:24:15;;;;;;;64.07;12.17;;;;;;;5.71;100.00;99480.91;5129881;28;20630;-65
2021/12/15 08:26:41;;;;;;;83.17;14.27;;;;;;;5.80;100.00;99484.22;5141977;27;20596;-64
2021/12/15 08:29:08;;;;;;;88.50;13.77;;;;;;;5.89;100.00;99478.63;5144869;27;21173;-65
2021/12/15 08:31:36;;;;;;;68.30;13.13;;;;;;;6.01;100.00;99476.22;5145706;27;20607;-65
2021/12/15 08:34:03;;;;;;;72.67;13.30;;;;;;;6.12;100.00;99469.56;5143535;27;20602;-64
2021/12/15 08:36:30;;;;;;;47.53;11.87;;;;;;;6.13;100.00;99472.00;5142208;27;20669;-65
2021/12/15 08:38:57;;;;;;;54.50;14.00;;;;;;;6.25;100.00;99477.59;5143521;27;20596;-65
2021/12/15 08:41:28;;;;;;;60.67;13.60;;;;;;;6.07;100.00;99480.75;5145762;27;20602;-65
2021/12/15 08:43:55;;;;;;;90.70;13.60;;;;;;;6.06;100.00;99479.13;5144994;27;20615;-66
2021/12/15 08:46:25;;;;;;;116.63;14.63;;;;;;;6.17;100.00;99485.69;5142017;27;20608;-65
2021/12/15 08:48:54;;;;;;;56.80;12.37;;;;;;;6.19;100.00;99479.19;5138278;27;20601;-65
2021/12/15 08:51:25;;;;;;;49.73;13.90;;;;;;;6.27;100.00;99478.22;5141944;27;20588;-64
2021/12/15 08:53:53;;;;;;;40.67;12.73;;;;;;;6.02;100.00;99477.88;5142346;27;20600;-66
2021/12/15 08:56:21;;;;;;;91.77;14.77;;;;;;;5.69;100.00;99479.47;5145345;27;20615;-66
2021/12/15 08:58:47;;;;;;;48.33;13.70;;;;;;;5.64;100.00;99473.91;5145144;27;20884;-66
2021/12/15 09:01:15;;;;;;;67.73;13.30;;;;;;;5.61;100.00;99483.06;5133279;27;20626;-65
2021/12/15 09:03:43;;;;;;;52.07;12.83;;;;;;;5.57;100.00;99481.03;5141815;27;20629;-65
2021/12/15 09:06:13;;;;;;;58.70;12.50;;;;;;;5.54;100.00;99478.75;5144568;27;20627;-65
2021/12/15 09:08:41;;;;;;;98.90;14.40;;;;;;;5.49;100.00;99489.91;5145086;27;20648;-65
2021/12/15 09:11:11;;;;;;;42.03;12.10;;;;;;;5.48;100.00;99482.97;5142457;27;20599;-64
2021/12/15 09:13:38;;;;;;;64.37;13.00;;;;;;;5.55;100.00;99494.44;5141193;27;20747;-65
2021/12/15 09:16:08;;;;;;;45.87;13.10;;;;;;;5.68;100.00;99494.56;5143559;27;20605;-64
2021/12/15 09:18:35;;;;;;;66.50;13.93;;;;;;;5.67;100.00;99492.09;5142361;27;20643;-65
2021/12/15 09:21:03;;;;;;;44.07;15.10;;;;;;;5.55;100.00;99494.44;5139987;27;20632;-65
2021/12/15 09:23:31;;;;;;;48.90;10.63;;;;;;;5.61;100.00;99495.50;5141665;27;20638;-65
2021/12/15 09:25:58;;;;;;;64.33;13.03;;;;;;;5.66;100.00;99498.41;5142698;27;21213;-65
2021/12/15 09:28:26;;;;;;;40.83;13.80;;;;;;;5.70;100.00;99495.19;5145157;27;20595;-65
2021/12/15 09:30:54;;;;;;;109.40;15.30;;;;;;;5.59;100.00;99502.84;5144098;27;20639;-65
2021/12/15 09:33:24;;;;;;;52.20;12.93;;;;;;;5.79;100.00;99506.44;5141446;27;20588;-66
2021/12/15 09:35:52;;;;;;;91.03;16.80;;;;;;;5.82;100.00;99498.09;5141267;27;20601;-65
2021/12/15 09:38:20;;;;;;;36.93;10.47;;;;;;;5.96;100.00;99494.56;5144109;27;20661;-65
2021/12/15 09:40:51;;;;;;;60.90;15.20;;;;;;;5.93;100.00;99500.25;5144669;27;20610;-65
2021/12/15 09:43:18;;;;;;;54.70;12.53;;;;;;;6.02;100.00;99493.78;5133045;27;21331;-69
2021/12/15 09:45:50;;;;;;;42.10;12.63;;;;;;;5.94;100.00;99492.09;5141067;27;20630;-65
2021/12/15 10:02:25;;;;;;;61.60;12.63;;;;;;;5.75;100.00;99486.66;5142856;27;20695;-64
2021/12/15 10:05:02;;;;;;;52.27;13.90;;;;;;;5.95;100.00;99488.44;5143630;27;20600;-65
2021/12/15 10:18:43;;;;;;;134.27;17.23;;;;;;;5.85;100.00;99480.00;5140471;27;20643;-66
2021/12/15 10:21:21;;;;;;;59.07;12.20;;;;;;;5.79;100.00;99482.59;5139638;27;20611;-65
2021/12/15 10:23:50;;;;;;;83.20;14.93;;;;;;;5.64;100.00;99474.75;5140176;27;20616;-65
2021/12/15 10:26:18;;;;;;;44.83;11.97;;;;;;;5.63;100.00;99474.94;5132164;27;20657;-64
2021/12/15 10:28:49;;;;;;;115.30;16.90;;;;;;;5.72;100.00;99479.91;5139862;27;20638;-65
2021/12/15 10:31:17;;;;;;;70.33;13.20;;;;;;;5.73;100.00;99475.41;5131284;27;20643;-66
2021/12/15 10:33:47;;;;;;;102.07;15.27;;;;;;;5.90;100.00;99479.44;5139802;27;20604;-65
2021/12/15 10:36:16;;;;;;;79.30;14.20;;;;;;;5.63;100.00;99470.44;5142939;27;20718;-66
2021/12/15 10:38:45;;;;;;;106.07;16.37;;;;;;;5.63;100.00;99474.94;5142584;27;20645;-65
2021/12/15 10:41:15;;;;;;;97.50;16.47;;;;;;;5.65;100.00;99472.91;5139188;27;20613;-65
2021/12/15 10:43:44;;;;;;;87.47;16.50;;;;;;;5.63;100.00;99467.00;5138905;27;20622;-65
2021/12/15 10:46:15;;;;;;;96.83;17.37;;;;;;;5.57;100.00;99457.16;5142028;27;21460;-66
2021/12/15 10:48:49;;;;;;;100.50;16.40;;;;;;;5.52;100.00;99464.88;5136770;27;20599;-64
2021/12/15 10:51:29;;;;;;;79.53;15.20;;;;;;;5.71;100.00;99459.72;5130798;27;21538;-65
2021/12/15 10:53:59;;;;;;;75.20;14.47;;;;;;;5.68;100.00;99457.44;5140040;27;20597;-65
2021/12/15 10:56:29;;;;;;;50.60;13.60;;;;;;;5.69;100.00;99458.28;5142613;27;20615;-65
2021/12/15 10:58:59;;;;;;;60.03;13.80;;;;;;;5.70;100.00;99452.75;5141373;27;20631;-64
2021/12/15 11:01:38;;;;;;;71.37;15.70;;;;;;;5.69;100.00;99451.16;5120952;28;21447;-64
2021/12/15 11:04:22;;;;;;;79.80;14.40;;;;;;;5.60;100.00;99451.47;5140950;27;20671;-65
2021/12/15 11:07:03;;;;;;;66.50;13.03;;;;;;;5.55;100.00;99453.88;5142348;27;20607;-65
2021/12/15 11:09:36;;;;;;;68.60;14.13;;;;;;;5.56;100.00;99450.22;5132452;27;20616;-64
2021/12/15 11:12:07;;;;;;;113.67;16.93;;;;;;;5.56;100.00;99450.22;5140543;27;20608;-65
2021/12/15 11:14:36;;;;;;;58.10;11.77;;;;;;;5.65;100.00;99449.06;5142433;27;20629;-65
2021/12/15 11:17:08;;;;;;;91.67;14.90;;;;;;;5.59;100.00;99450.66;5140627;27;20669;-65
2021/12/15 11:19:40;;;;;;;41.57;11.83;;;;;;;5.57;100.00;99457.97;5132089;27;20604;-65
2021/12/15 11:22:43;;;;;;;56.03;13.67;;;;;;;5.63;100.00;99456.41;5141462;27;20616;-64
2021/12/15 11:25:13;;;;;;;71.40;13.47;;;;;;;5.63;100.00;99446.59;5139722;27;20608;-64
2021/12/15 11:27:41;;;;;;;46.73;11.80;;;;;;;5.55;100.00;99437.97;5139123;27;20736;-65
2021/12/15 11:30:12;;;;;;;46.47;13.83;;;;;;;5.59;100.00;99442.72;5141553;27;20612;-65
2021/12/15 11:32:44;;;;;;;53.77;14.57;;;;;;;5.57;100.00;99443.91;5142423;28;20611;-64
2021/12/15 11:35:17;;;;;;;73.27;14.63;;;;;;;5.61;100.00;99439.84;5139384;28;20619;-64
2021/12/15 11:37:56;;;;;;;65.60;14.63;;;;;;;5.74;100.00;99447.91;5138810;28;20707;-64
2021/12/15 11:40:29;;;;;;;63.40;12.80;;;;;;;5.72;100.00;99449.94;5131708;28;20600;-64
2021/12/15 11:42:56;;;;;;;52.67;14.37;;;;;;;5.69;100.00;99435.25;5139660;28;20595;-65
2021/12/15 11:45:23;;;;;;;47.73;16.60;;;;;;;5.73;100.00;99438.28;5142477;28;20591;-64
2021/12/15 11:47:52;;;;;;;41.90;14.53;;;;;;;5.69;100.00;99435.25;5142322;28;21430;-65
2021/12/15 11:50:22;;;;;;;64.80;14.13;;;;;;;5.59;100.00;99431.28;5130833;28;20616;-65
2021/12/15 11:52:51;;;;;;;50.70;15.43;;;;;;;5.66;100.00;99432.16;5142245;28;20606;-64
2021/12/15 11:55:26;;;;;;;71.17;16.03;;;;;;;5.74;100.00;99440.75;5130841;28;20629;-64
2021/12/15 11:57:53;;;;;;;30.13;14.30;;;;;;;5.64;100.00;99431.50;5138996;28;20651;-64
2021/12/15 12:00:22;;;;;;;34.53;12.90;;;;;;;5.71;100.00;99429.72;5143758;27;20656;-65
2021/12/15 12:02:53;;;;;;;52.77;14.50;;;;;;;5.69;100.00;99424.63;5146319;27;20628;-65
2021/12/15 12:05:25;;;;;;;43.60;13.80;;;;;;;5.75;100.00;99423.84;5135047;27;20620;-65
2021/12/15 12:07:55;;;;;;;41.70;16.33;;;;;;;5.89;100.00;99425.59;5142976;27;20593;-65
2021/12/15 12:10:27;;;;;;;48.37;13.60;;;;;;;5.86;100.00;99422.50;5146254;27;20615;-65
2021/12/15 12:13:03;;;;;;;58.70;13.80;;;;;;;5.83;100.00;99429.00;5145531;27;20606;-66
2021/12/15 12:15:31;;;;;;;34.33;12.67;;;;;;;5.86;100.00;99427.81;5142832;27;20637;-65
2021/12/15 12:18:01;;;;;;;59.33;14.80;;;;;;;5.85;100.00;99423.47;5143330;27;20636;-65
2021/12/15 12:20:30;;;;;;;73.27;15.33;;;;;;;5.95;100.00;99418.69;5138873;27;20612;-65
2021/12/15 12:23:00;;;;;;;57.27;15.30;;;;;;;6.10;100.00;99414.06;5144830;27;20591;-65
2021/12/15 12:25:29;;;;;;;39.53;13.57;;;;;;;6.02;100.00;99418.72;5142465;27;20604;-64
2021/12/15 12:27:58;;;;;;;52.70;15.80;;;;;;;5.99;100.00;99414.63;5143223;27;20612;-65
2021/12/15 12:30:29;;;;;;;43.77;13.70;;;;;;;6.03;100.00;99410.56;5145751;27;20604;-64
2021/12/15 12:32:57;;;;;;;75.27;15.47;;;;;;;6.03;100.00;99413.22;5144803;27;20603;-65
2021/12/15 12:35:26;;;;;;;34.23;14.57;;;;;;;5.94;100.00;99422.38;5142177;27;20630;-64
2021/12/15 12:37:56;;;;;;;66.40;15.03;;;;;;;5.89;100.00;99414.16;5142189;27;20640;-64